sensor_id;sensor_type;location;lat;lon;timestamp;temperature;humidity
758;DHT22;363;48.764;9.172;2023-02-16T00:00:22;2.60;99.90
758;DHT22;363;48.764;9.172;2023-02-16T00:02:48;3.30;99.90
758;DHT22;363;48.764;9.172;2023-02-16T00:07:51;3.30;99.90
758;DHT22;363;48.764;9.172;2023-02-16T00:10:17;3.60;99.90
758;DHT22;363;48.764;9.172;2023-02-16T00:12:43;3.10;99.90
758;DHT22;363;48.764;9.172;2023-02-16T00:15:27;3.40;99.90
758;DHT22;363;48.764;9.172;2023-02-16T00:17:54;2.90;99.90
758;DHT22;363;48.764;9.172;2023-02-16T00:20:21;2.60;99.90
758;DHT22;363;48.764;9.172;2023-02-16T00:22:46;2.90;99.90
758;DHT22;363;48.764;9.172;2023-02-16T00:25:12;2.90;99.90
758;DHT22;363;48.764;9.172;2023-02-16T00:27:37;3.30;99.90
758;DHT22;363;48.764;9.172;2023-02-16T00:30:23;3.50;99.90
758;DHT22;363;48.764;9.172;2023-02-16T00:32:49;2.50;99.90
758;DHT22;363;48.764;9.172;2023-02-16T00:35:20;3.10;99.90
758;DHT22;363;48.764;9.172;2023-02-16T00:37:46;2.80;99.90
758;DHT22;363;48.764;9.172;2023-02-16T00:40:14;2.80;99.90
758;DHT22;363;48.764;9.172;2023-02-16T00:42:40;2.80;99.90
758;DHT22;363;48.764;9.172;2023-02-16T00:45:15;3.00;99.90
758;DHT22;363;48.764;9.172;2023-02-16T00:47:43;3.00;99.90
758;DHT22;363;48.764;9.172;2023-02-16T00:50:21;3.00;99.90
758;DHT22;363;48.764;9.172;2023-02-16T00:52:47;2.60;99.90
758;DHT22;363;48.764;9.172;2023-02-16T00:55:22;2.80;99.90
758;DHT22;363;48.764;9.172;2023-02-16T00:57:54;2.60;99.90
758;DHT22;363;48.764;9.172;2023-02-16T01:00:24;2.40;99.90
758;DHT22;363;48.764;9.172;2023-02-16T01:02:54;2.70;99.90
758;DHT22;363;48.764;9.172;2023-02-16T01:05:20;2.40;99.90
758;DHT22;363;48.764;9.172;2023-02-16T01:07:46;2.30;99.90
758;DHT22;363;48.764;9.172;2023-02-16T01:10:31;2.20;99.90
758;DHT22;363;48.764;9.172;2023-02-16T01:13:44;2.60;99.90
758;DHT22;363;48.764;9.172;2023-02-16T01:16:13;2.70;99.90
758;DHT22;363;48.764;9.172;2023-02-16T01:18:39;2.10;99.90
758;DHT22;363;48.764;9.172;2023-02-16T01:21:04;2.50;99.90
758;DHT22;363;48.764;9.172;2023-02-16T01:23:30;2.80;99.90
758;DHT22;363;48.764;9.172;2023-02-16T01:25:55;2.40;99.90
758;DHT22;363;48.764;9.172;2023-02-16T01:28:23;2.20;99.90
758;DHT22;363;48.764;9.172;2023-02-16T01:30:51;2.90;99.90
758;DHT22;363;48.764;9.172;2023-02-16T01:33:17;2.40;99.90
758;DHT22;363;48.764;9.172;2023-02-16T01:35:44;2.40;99.90
758;DHT22;363;48.764;9.172;2023-02-16T01:38:19;1.70;99.90
758;DHT22;363;48.764;9.172;2023-02-16T01:41:17;2.40;99.90
758;DHT22;363;48.764;9.172;2023-02-16T01:43:51;2.40;99.90
758;DHT22;363;48.764;9.172;2023-02-16T01:46:24;2.30;99.90
758;DHT22;363;48.764;9.172;2023-02-16T01:48:53;1.50;99.90
758;DHT22;363;48.764;9.172;2023-02-16T01:54:42;2.20;99.90
758;DHT22;363;48.764;9.172;2023-02-16T02:02:24;1.60;99.90
758;DHT22;363;48.764;9.172;2023-02-16T02:04:57;2.20;99.90
758;DHT22;363;48.764;9.172;2023-02-16T02:10:16;2.40;99.90
758;DHT22;363;48.764;9.172;2023-02-16T02:15:17;2.30;99.90
758;DHT22;363;48.764;9.172;2023-02-16T02:17:44;2.20;99.90
758;DHT22;363;48.764;9.172;2023-02-16T02:20:41;2.20;99.90
758;DHT22;363;48.764;9.172;2023-02-16T02:24:02;2.30;99.90
758;DHT22;363;48.764;9.172;2023-02-16T02:32:06;2.20;99.90
758;DHT22;363;48.764;9.172;2023-02-16T02:34:55;2.20;99.90
758;DHT22;363;48.764;9.172;2023-02-16T02:37:43;2.40;99.90
758;DHT22;363;48.764;9.172;2023-02-16T02:46:06;2.50;99.90
758;DHT22;363;48.764;9.172;2023-02-16T02:48:33;2.50;99.90
758;DHT22;363;48.764;9.172;2023-02-16T02:51:03;2.50;99.90
758;DHT22;363;48.764;9.172;2023-02-16T03:02:59;2.40;99.90
758;DHT22;363;48.764;9.172;2023-02-16T03:05:28;2.30;99.90
758;DHT22;363;48.764;9.172;2023-02-16T03:08:00;2.80;99.90
758;DHT22;363;48.764;9.172;2023-02-16T03:10:32;2.40;99.90
758;DHT22;363;48.764;9.172;2023-02-16T03:13:22;2.00;99.90
758;DHT22;363;48.764;9.172;2023-02-16T03:15:50;1.90;99.90
758;DHT22;363;48.764;9.172;2023-02-16T03:18:20;1.60;99.90
758;DHT22;363;48.764;9.172;2023-02-16T03:21:07;1.60;99.90
758;DHT22;363;48.764;9.172;2023-02-16T03:23:53;2.10;99.90
758;DHT22;363;48.764;9.172;2023-02-16T03:26:38;2.10;99.90
758;DHT22;363;48.764;9.172;2023-02-16T03:29:23;2.30;99.90
758;DHT22;363;48.764;9.172;2023-02-16T03:31:51;2.20;99.90
758;DHT22;363;48.764;9.172;2023-02-16T03:34:19;2.20;99.90
758;DHT22;363;48.764;9.172;2023-02-16T03:36:48;2.20;99.90
758;DHT22;363;48.764;9.172;2023-02-16T03:39:15;1.60;99.90
758;DHT22;363;48.764;9.172;2023-02-16T03:41:44;1.70;99.90
758;DHT22;363;48.764;9.172;2023-02-16T03:44:10;2.40;99.90
758;DHT22;363;48.764;9.172;2023-02-16T03:46:36;1.50;99.90
758;DHT22;363;48.764;9.172;2023-02-16T03:49:02;1.70;99.90
758;DHT22;363;48.764;9.172;2023-02-16T03:51:27;1.70;99.90
758;DHT22;363;48.764;9.172;2023-02-16T03:53:53;1.80;99.90
758;DHT22;363;48.764;9.172;2023-02-16T03:56:18;2.50;99.90
758;DHT22;363;48.764;9.172;2023-02-16T03:58:44;2.50;99.90
758;DHT22;363;48.764;9.172;2023-02-16T04:01:10;2.50;99.90
758;DHT22;363;48.764;9.172;2023-02-16T04:03:35;2.30;99.90
758;DHT22;363;48.764;9.172;2023-02-16T04:06:01;1.70;99.90
758;DHT22;363;48.764;9.172;2023-02-16T04:08:27;1.60;99.90
758;DHT22;363;48.764;9.172;2023-02-16T04:10:52;2.40;99.90
758;DHT22;363;48.764;9.172;2023-02-16T04:13:22;1.80;99.90
758;DHT22;363;48.764;9.172;2023-02-16T04:15:48;2.30;99.90
758;DHT22;363;48.764;9.172;2023-02-16T04:18:13;1.80;99.90
758;DHT22;363;48.764;9.172;2023-02-16T04:20:39;2.10;99.90
758;DHT22;363;48.764;9.172;2023-02-16T04:23:05;2.20;99.90
758;DHT22;363;48.764;9.172;2023-02-16T04:25:31;1.90;99.90
758;DHT22;363;48.764;9.172;2023-02-16T04:27:56;1.60;99.90
758;DHT22;363;48.764;9.172;2023-02-16T04:30:26;2.30;99.90
758;DHT22;363;48.764;9.172;2023-02-16T04:32:52;1.60;99.90
758;DHT22;363;48.764;9.172;2023-02-16T04:35:18;1.70;99.90
758;DHT22;363;48.764;9.172;2023-02-16T04:37:44;2.20;99.90
758;DHT22;363;48.764;9.172;2023-02-16T04:40:11;1.50;99.90
758;DHT22;363;48.764;9.172;2023-02-16T04:42:41;2.30;99.90
758;DHT22;363;48.764;9.172;2023-02-16T04:45:08;2.30;99.90
758;DHT22;363;48.764;9.172;2023-02-16T04:47:34;2.10;99.90
758;DHT22;363;48.764;9.172;2023-02-16T04:50:00;2.00;99.90
758;DHT22;363;48.764;9.172;2023-02-16T04:52:25;2.10;99.90
758;DHT22;363;48.764;9.172;2023-02-16T04:54:51;1.50;99.90
758;DHT22;363;48.764;9.172;2023-02-16T04:57:17;1.90;99.90
758;DHT22;363;48.764;9.172;2023-02-16T04:59:44;1.40;99.90
758;DHT22;363;48.764;9.172;2023-02-16T05:02:09;1.80;99.90
758;DHT22;363;48.764;9.172;2023-02-16T05:04:35;1.70;99.90
758;DHT22;363;48.764;9.172;2023-02-16T05:07:01;1.90;99.90
758;DHT22;363;48.764;9.172;2023-02-16T05:09:26;1.80;99.90
758;DHT22;363;48.764;9.172;2023-02-16T05:11:52;1.90;99.90
758;DHT22;363;48.764;9.172;2023-02-16T05:14:36;1.90;99.90
758;DHT22;363;48.764;9.172;2023-02-16T05:17:14;1.80;99.90
758;DHT22;363;48.764;9.172;2023-02-16T05:19:42;2.10;99.90
758;DHT22;363;48.764;9.172;2023-02-16T05:22:09;1.90;99.90
758;DHT22;363;48.764;9.172;2023-02-16T05:24:35;2.50;99.90
758;DHT22;363;48.764;9.172;2023-02-16T05:27:02;1.40;99.90
758;DHT22;363;48.764;9.172;2023-02-16T05:29:28;2.00;99.90
758;DHT22;363;48.764;9.172;2023-02-16T05:31:54;1.80;99.90
758;DHT22;363;48.764;9.172;2023-02-16T05:34:20;1.50;99.90
758;DHT22;363;48.764;9.172;2023-02-16T05:36:45;2.20;99.90
758;DHT22;363;48.764;9.172;2023-02-16T05:39:11;2.10;99.90
758;DHT22;363;48.764;9.172;2023-02-16T05:41:36;1.90;99.90
758;DHT22;363;48.764;9.172;2023-02-16T05:44:03;1.30;99.90
758;DHT22;363;48.764;9.172;2023-02-16T05:46:32;2.20;99.90
758;DHT22;363;48.764;9.172;2023-02-16T05:48:59;2.00;99.90
758;DHT22;363;48.764;9.172;2023-02-16T05:51:25;2.20;99.90
758;DHT22;363;48.764;9.172;2023-02-16T05:53:51;1.50;99.90
758;DHT22;363;48.764;9.172;2023-02-16T05:56:18;1.90;99.90
758;DHT22;363;48.764;9.172;2023-02-16T05:58:44;1.90;99.90
758;DHT22;363;48.764;9.172;2023-02-16T06:01:10;1.90;99.90
758;DHT22;363;48.764;9.172;2023-02-16T06:03:36;2.20;99.90
758;DHT22;363;48.764;9.172;2023-02-16T06:06:02;1.90;99.90
758;DHT22;363;48.764;9.172;2023-02-16T06:08:29;2.10;99.90
758;DHT22;363;48.764;9.172;2023-02-16T06:10:55;2.50;99.90
758;DHT22;363;48.764;9.172;2023-02-16T06:13:22;1.90;99.90
758;DHT22;363;48.764;9.172;2023-02-16T06:15:51;2.10;99.90
758;DHT22;363;48.764;9.172;2023-02-16T06:18:17;2.00;99.90
758;DHT22;363;48.764;9.172;2023-02-16T06:20:43;2.00;99.90
758;DHT22;363;48.764;9.172;2023-02-16T06:23:11;2.00;99.90
758;DHT22;363;48.764;9.172;2023-02-16T06:25:37;1.30;99.90
758;DHT22;363;48.764;9.172;2023-02-16T06:28:02;1.70;99.90
758;DHT22;363;48.764;9.172;2023-02-16T06:30:28;1.80;99.90
758;DHT22;363;48.764;9.172;2023-02-16T06:32:53;1.80;99.90
758;DHT22;363;48.764;9.172;2023-02-16T06:35:19;1.80;99.90
758;DHT22;363;48.764;9.172;2023-02-16T06:37:45;2.00;99.90
758;DHT22;363;48.764;9.172;2023-02-16T06:40:11;1.30;99.90
758;DHT22;363;48.764;9.172;2023-02-16T06:42:41;2.00;99.90
758;DHT22;363;48.764;9.172;2023-02-16T06:45:08;1.90;99.90
758;DHT22;363;48.764;9.172;2023-02-16T06:47:35;2.20;99.90
758;DHT22;363;48.764;9.172;2023-02-16T06:50:01;1.40;99.90
758;DHT22;363;48.764;9.172;2023-02-16T06:52:26;2.10;99.90
758;DHT22;363;48.764;9.172;2023-02-16T06:54:52;1.50;99.90
758;DHT22;363;48.764;9.172;2023-02-16T06:57:18;1.70;99.90
758;DHT22;363;48.764;9.172;2023-02-16T06:59:43;2.30;99.90
758;DHT22;363;48.764;9.172;2023-02-16T07:02:09;2.30;99.90
758;DHT22;363;48.764;9.172;2023-02-16T07:04:35;2.20;99.90
758;DHT22;363;48.764;9.172;2023-02-16T07:07:01;1.70;99.90
758;DHT22;363;48.764;9.172;2023-02-16T07:09:26;2.20;99.90
758;DHT22;363;48.764;9.172;2023-02-16T07:11:52;2.20;99.90
758;DHT22;363;48.764;9.172;2023-02-16T07:14:18;1.60;99.90
758;DHT22;363;48.764;9.172;2023-02-16T07:16:44;2.20;99.90
758;DHT22;363;48.764;9.172;2023-02-16T07:19:09;2.00;99.90
758;DHT22;363;48.764;9.172;2023-02-16T07:21:35;2.50;99.90
758;DHT22;363;48.764;9.172;2023-02-16T07:24:01;2.40;99.90
758;DHT22;363;48.764;9.172;2023-02-16T07:26:26;2.30;99.90
758;DHT22;363;48.764;9.172;2023-02-16T07:28:52;2.50;99.90
758;DHT22;363;48.764;9.172;2023-02-16T07:31:18;2.50;99.90
758;DHT22;363;48.764;9.172;2023-02-16T07:33:44;2.00;99.90
758;DHT22;363;48.764;9.172;2023-02-16T07:36:10;2.40;99.90
758;DHT22;363;48.764;9.172;2023-02-16T07:38:38;2.80;99.90
758;DHT22;363;48.764;9.172;2023-02-16T07:41:06;2.80;99.90
758;DHT22;363;48.764;9.172;2023-02-16T07:43:32;3.20;99.90
758;DHT22;363;48.764;9.172;2023-02-16T07:45:59;3.40;99.90
758;DHT22;363;48.764;9.172;2023-02-16T07:48:24;3.20;99.90
758;DHT22;363;48.764;9.172;2023-02-16T07:50:50;3.10;99.90
758;DHT22;363;48.764;9.172;2023-02-16T07:53:15;2.90;99.90
758;DHT22;363;48.764;9.172;2023-02-16T07:55:42;3.80;99.90
758;DHT22;363;48.764;9.172;2023-02-16T07:58:08;4.00;99.90
758;DHT22;363;48.764;9.172;2023-02-16T08:00:34;3.70;99.90
758;DHT22;363;48.764;9.172;2023-02-16T08:03:00;4.30;99.90
758;DHT22;363;48.764;9.172;2023-02-16T08:05:25;3.70;99.90
758;DHT22;363;48.764;9.172;2023-02-16T08:07:51;3.70;99.90
758;DHT22;363;48.764;9.172;2023-02-16T08:10:17;4.90;99.90
758;DHT22;363;48.764;9.172;2023-02-16T08:12:42;4.60;99.90
758;DHT22;363;48.764;9.172;2023-02-16T08:15:09;4.10;99.90
758;DHT22;363;48.764;9.172;2023-02-16T08:17:35;4.00;99.90
758;DHT22;363;48.764;9.172;2023-02-16T08:20:01;4.80;99.90
758;DHT22;363;48.764;9.172;2023-02-16T08:22:27;4.60;99.90
758;DHT22;363;48.764;9.172;2023-02-16T08:24:53;4.30;99.90
758;DHT22;363;48.764;9.172;2023-02-16T08:27:19;4.70;99.90
758;DHT22;363;48.764;9.172;2023-02-16T08:29:45;4.90;99.90
758;DHT22;363;48.764;9.172;2023-02-16T08:32:11;4.80;99.90
758;DHT22;363;48.764;9.172;2023-02-16T08:34:38;5.80;99.90
758;DHT22;363;48.764;9.172;2023-02-16T08:37:03;5.80;99.90
758;DHT22;363;48.764;9.172;2023-02-16T08:39:30;5.20;99.90
758;DHT22;363;48.764;9.172;2023-02-16T08:41:57;5.90;99.90
758;DHT22;363;48.764;9.172;2023-02-16T08:44:24;5.60;99.90
758;DHT22;363;48.764;9.172;2023-02-16T08:46:52;5.80;99.90
758;DHT22;363;48.764;9.172;2023-02-16T08:49:20;5.90;99.90
758;DHT22;363;48.764;9.172;2023-02-16T08:51:51;6.20;99.90
758;DHT22;363;48.764;9.172;2023-02-16T08:54:21;6.00;99.90
758;DHT22;363;48.764;9.172;2023-02-16T08:56:48;6.20;99.90
758;DHT22;363;48.764;9.172;2023-02-16T08:59:16;5.60;99.90
758;DHT22;363;48.764;9.172;2023-02-16T09:01:42;6.40;99.90
758;DHT22;363;48.764;9.172;2023-02-16T09:04:08;6.50;99.90
758;DHT22;363;48.764;9.172;2023-02-16T09:06:38;7.10;99.90
758;DHT22;363;48.764;9.172;2023-02-16T09:09:05;9.00;99.90
758;DHT22;363;48.764;9.172;2023-02-16T09:11:31;10.80;99.90
758;DHT22;363;48.764;9.172;2023-02-16T09:13:56;12.70;95.10
758;DHT22;363;48.764;9.172;2023-02-16T09:16:23;14.50;91.30
758;DHT22;363;48.764;9.172;2023-02-16T09:18:49;15.60;86.60
758;DHT22;363;48.764;9.172;2023-02-16T09:21:20;16.70;82.00
758;DHT22;363;48.764;9.172;2023-02-16T09:23:48;17.60;78.10
758;DHT22;363;48.764;9.172;2023-02-16T09:26:15;18.50;75.50
758;DHT22;363;48.764;9.172;2023-02-16T09:28:41;19.30;71.30
758;DHT22;363;48.764;9.172;2023-02-16T09:31:22;19.10;68.60
758;DHT22;363;48.764;9.172;2023-02-16T09:33:59;18.80;68.70
758;DHT22;363;48.764;9.172;2023-02-16T09:36:26;19.10;67.00
758;DHT22;363;48.764;9.172;2023-02-16T09:38:52;19.40;66.40
758;DHT22;363;48.764;9.172;2023-02-16T09:44:17;18.90;63.70
758;DHT22;363;48.764;9.172;2023-02-16T09:46:47;18.60;66.20
758;DHT22;363;48.764;9.172;2023-02-16T09:49:32;17.60;64.50
758;DHT22;363;48.764;9.172;2023-02-16T09:52:08;17.60;64.60
758;DHT22;363;48.764;9.172;2023-02-16T09:54:53;18.50;62.00
758;DHT22;363;48.764;9.172;2023-02-16T10:08:50;18.80;55.50
758;DHT22;363;48.764;9.172;2023-02-16T10:11:40;18.70;55.70
758;DHT22;363;48.764;9.172;2023-02-16T10:14:30;19.10;56.30
758;DHT22;363;48.764;9.172;2023-02-16T10:17:10;19.30;56.00
758;DHT22;363;48.764;9.172;2023-02-16T10:19:51;18.90;55.40
758;DHT22;363;48.764;9.172;2023-02-16T10:22:26;19.60;56.00
758;DHT22;363;48.764;9.172;2023-02-16T10:25:08;18.70;55.70
758;DHT22;363;48.764;9.172;2023-02-16T10:27:40;18.50;56.00
758;DHT22;363;48.764;9.172;2023-02-16T10:30:18;18.50;54.70
758;DHT22;363;48.764;9.172;2023-02-16T10:35:15;17.60;56.50
758;DHT22;363;48.764;9.172;2023-02-16T10:40:54;18.10;56.10
758;DHT22;363;48.764;9.172;2023-02-16T10:46:11;19.10;54.90
758;DHT22;363;48.764;9.172;2023-02-16T10:48:40;20.00;53.10
758;DHT22;363;48.764;9.172;2023-02-16T10:51:15;20.80;52.20
758;DHT22;363;48.764;9.172;2023-02-16T10:53:50;20.30;52.00
758;DHT22;363;48.764;9.172;2023-02-16T10:58:49;22.10;49.40
758;DHT22;363;48.764;9.172;2023-02-16T11:01:19;22.80;48.30
758;DHT22;363;48.764;9.172;2023-02-16T11:03:50;21.80;48.20
758;DHT22;363;48.764;9.172;2023-02-16T11:08:54;22.40;47.60
758;DHT22;363;48.764;9.172;2023-02-16T11:11:24;22.80;46.50
758;DHT22;363;48.764;9.172;2023-02-16T11:13:57;22.60;46.70
758;DHT22;363;48.764;9.172;2023-02-16T11:16:24;22.50;46.60
758;DHT22;363;48.764;9.172;2023-02-16T11:19:04;22.30;46.80
758;DHT22;363;48.764;9.172;2023-02-16T11:21:43;22.30;46.90
758;DHT22;363;48.764;9.172;2023-02-16T11:24:12;21.90;46.90
758;DHT22;363;48.764;9.172;2023-02-16T11:26:38;22.50;46.50
758;DHT22;363;48.764;9.172;2023-02-16T11:29:17;22.90;46.20
758;DHT22;363;48.764;9.172;2023-02-16T11:31:43;22.90;45.30
758;DHT22;363;48.764;9.172;2023-02-16T11:41:44;21.10;45.90
758;DHT22;363;48.764;9.172;2023-02-16T11:44:39;21.10;45.70
758;DHT22;363;48.764;9.172;2023-02-16T11:47:09;21.10;46.20
758;DHT22;363;48.764;9.172;2023-02-16T11:49:44;21.00;46.00
758;DHT22;363;48.764;9.172;2023-02-16T11:52:36;20.80;45.80
758;DHT22;363;48.764;9.172;2023-02-16T11:55:02;20.70;45.60
758;DHT22;363;48.764;9.172;2023-02-16T11:57:35;20.80;46.60
758;DHT22;363;48.764;9.172;2023-02-16T12:00:15;20.70;46.90
758;DHT22;363;48.764;9.172;2023-02-16T12:08:34;20.00;49.20
758;DHT22;363;48.764;9.172;2023-02-16T12:11:22;19.60;50.40
758;DHT22;363;48.764;9.172;2023-02-16T12:14:16;19.20;51.20
758;DHT22;363;48.764;9.172;2023-02-16T12:16:59;18.80;51.90
758;DHT22;363;48.764;9.172;2023-02-16T12:19:45;19.00;53.10
758;DHT22;363;48.764;9.172;2023-02-16T12:25:18;18.90;51.90
758;DHT22;363;48.764;9.172;2023-02-16T12:31:05;18.40;52.80
758;DHT22;363;48.764;9.172;2023-02-16T12:33:59;18.40;53.50
758;DHT22;363;48.764;9.172;2023-02-16T12:39:15;17.50;54.70
758;DHT22;363;48.764;9.172;2023-02-16T12:44:41;17.90;54.30
758;DHT22;363;48.764;9.172;2023-02-16T12:47:15;17.80;54.20
758;DHT22;363;48.764;9.172;2023-02-16T12:49:57;17.70;54.40
758;DHT22;363;48.764;9.172;2023-02-16T12:52:32;17.50;54.60
758;DHT22;363;48.764;9.172;2023-02-16T12:57:34;17.50;55.30
758;DHT22;363;48.764;9.172;2023-02-16T13:00:04;17.50;54.90
758;DHT22;363;48.764;9.172;2023-02-16T13:02:41;17.40;54.70
758;DHT22;363;48.764;9.172;2023-02-16T13:05:22;17.50;55.10
758;DHT22;363;48.764;9.172;2023-02-16T13:07:56;17.50;55.20
758;DHT22;363;48.764;9.172;2023-02-16T13:13:15;17.20;54.70
758;DHT22;363;48.764;9.172;2023-02-16T13:15:50;17.30;55.50
758;DHT22;363;48.764;9.172;2023-02-16T13:18:32;17.10;55.30
758;DHT22;363;48.764;9.172;2023-02-16T13:24:12;16.70;56.00
758;DHT22;363;48.764;9.172;2023-02-16T13:29:41;16.80;56.80
758;DHT22;363;48.764;9.172;2023-02-16T13:43:50;16.40;57.50
758;DHT22;363;48.764;9.172;2023-02-16T13:46:31;16.40;58.10
758;DHT22;363;48.764;9.172;2023-02-16T13:48:59;16.70;58.00
758;DHT22;363;48.764;9.172;2023-02-16T13:51:27;16.50;57.80
758;DHT22;363;48.764;9.172;2023-02-16T13:54:04;16.40;58.30
758;DHT22;363;48.764;9.172;2023-02-16T13:56:35;16.60;58.70
758;DHT22;363;48.764;9.172;2023-02-16T14:04:58;16.20;58.70
758;DHT22;363;48.764;9.172;2023-02-16T14:09:48;16.40;59.30
758;DHT22;363;48.764;9.172;2023-02-16T14:12:27;16.40;59.70
758;DHT22;363;48.764;9.172;2023-02-16T14:14:58;16.20;59.80
758;DHT22;363;48.764;9.172;2023-02-16T14:17:27;16.20;60.70
758;DHT22;363;48.764;9.172;2023-02-16T14:20:24;16.30;61.10
758;DHT22;363;48.764;9.172;2023-02-16T14:22:51;16.40;61.50
758;DHT22;363;48.764;9.172;2023-02-16T14:30:47;16.10;62.90
758;DHT22;363;48.764;9.172;2023-02-16T14:41:02;15.90;64.10
758;DHT22;363;48.764;9.172;2023-02-16T14:43:42;15.80;64.00
758;DHT22;363;48.764;9.172;2023-02-16T14:58:15;15.70;64.40
758;DHT22;363;48.764;9.172;2023-02-16T15:01:23;15.80;65.10
758;DHT22;363;48.764;9.172;2023-02-16T15:03:50;15.90;64.30
758;DHT22;363;48.764;9.172;2023-02-16T15:06:36;15.90;63.90
758;DHT22;363;48.764;9.172;2023-02-16T15:09:14;16.10;63.90
758;DHT22;363;48.764;9.172;2023-02-16T15:11:55;16.20;65.50
758;DHT22;363;48.764;9.172;2023-02-16T15:15:04;16.20;66.00
758;DHT22;363;48.764;9.172;2023-02-16T15:17:40;16.30;66.30
758;DHT22;363;48.764;9.172;2023-02-16T15:22:54;15.80;66.30
758;DHT22;363;48.764;9.172;2023-02-16T15:25:30;15.90;67.80
758;DHT22;363;48.764;9.172;2023-02-16T15:27:59;15.90;69.40
758;DHT22;363;48.764;9.172;2023-02-16T15:30:33;15.90;69.90
758;DHT22;363;48.764;9.172;2023-02-16T15:33:05;15.90;71.20
758;DHT22;363;48.764;9.172;2023-02-16T15:35:40;15.50;71.80
758;DHT22;363;48.764;9.172;2023-02-16T15:40:37;15.40;73.10
758;DHT22;363;48.764;9.172;2023-02-16T15:43:14;15.10;73.90
758;DHT22;363;48.764;9.172;2023-02-16T15:45:48;15.20;72.80
758;DHT22;363;48.764;9.172;2023-02-16T15:48:36;15.10;75.40
758;DHT22;363;48.764;9.172;2023-02-16T15:53:40;14.90;75.00
758;DHT22;363;48.764;9.172;2023-02-16T15:56:49;14.70;74.20
758;DHT22;363;48.764;9.172;2023-02-16T16:04:53;14.80;71.60
758;DHT22;363;48.764;9.172;2023-02-16T16:07:28;14.70;71.00
758;DHT22;363;48.764;9.172;2023-02-16T16:09:55;14.60;65.40
758;DHT22;363;48.764;9.172;2023-02-16T16:12:22;14.60;64.40
758;DHT22;363;48.764;9.172;2023-02-16T16:14:49;14.50;64.20
758;DHT22;363;48.764;9.172;2023-02-16T16:17:20;14.70;65.00
758;DHT22;363;48.764;9.172;2023-02-16T16:19:46;14.70;65.00
758;DHT22;363;48.764;9.172;2023-02-16T16:22:36;14.60;65.20
758;DHT22;363;48.764;9.172;2023-02-16T16:27:58;14.60;64.80
758;DHT22;363;48.764;9.172;2023-02-16T16:33:18;14.40;65.30
758;DHT22;363;48.764;9.172;2023-02-16T16:35:47;14.30;66.00
758;DHT22;363;48.764;9.172;2023-02-16T16:38:27;14.30;66.50
758;DHT22;363;48.764;9.172;2023-02-16T16:40:58;14.40;67.40
758;DHT22;363;48.764;9.172;2023-02-16T16:43:34;14.10;68.50
758;DHT22;363;48.764;9.172;2023-02-16T16:46:23;14.10;69.20
758;DHT22;363;48.764;9.172;2023-02-16T16:48:52;14.20;69.00
758;DHT22;363;48.764;9.172;2023-02-16T16:54:02;14.20;69.90
758;DHT22;363;48.764;9.172;2023-02-16T16:56:35;14.10;68.50
758;DHT22;363;48.764;9.172;2023-02-16T16:59:02;14.20;67.80
758;DHT22;363;48.764;9.172;2023-02-16T17:01:28;14.00;70.10
758;DHT22;363;48.764;9.172;2023-02-16T17:03:54;13.80;69.70
758;DHT22;363;48.764;9.172;2023-02-16T17:06:20;13.90;71.00
758;DHT22;363;48.764;9.172;2023-02-16T17:08:46;13.80;71.70
758;DHT22;363;48.764;9.172;2023-02-16T17:13:49;13.50;73.50
758;DHT22;363;48.764;9.172;2023-02-16T17:16:30;13.50;73.50
758;DHT22;363;48.764;9.172;2023-02-16T17:18:55;13.50;74.00
758;DHT22;363;48.764;9.172;2023-02-16T17:21:21;13.50;74.40
758;DHT22;363;48.764;9.172;2023-02-16T17:23:47;13.30;74.80
758;DHT22;363;48.764;9.172;2023-02-16T17:26:12;13.30;75.50
758;DHT22;363;48.764;9.172;2023-02-16T17:28:38;13.60;76.50
758;DHT22;363;48.764;9.172;2023-02-16T17:31:05;13.30;77.10
758;DHT22;363;48.764;9.172;2023-02-16T17:33:31;13.20;77.40
758;DHT22;363;48.764;9.172;2023-02-16T17:35:57;13.40;79.30
758;DHT22;363;48.764;9.172;2023-02-16T17:38:23;13.00;78.90
758;DHT22;363;48.764;9.172;2023-02-16T17:40:53;12.80;79.20
758;DHT22;363;48.764;9.172;2023-02-16T17:43:20;13.10;80.20
758;DHT22;363;48.764;9.172;2023-02-16T17:45:46;12.70;80.50
758;DHT22;363;48.764;9.172;2023-02-16T17:48:26;12.80;80.20
758;DHT22;363;48.764;9.172;2023-02-16T17:50:55;13.00;80.70
758;DHT22;363;48.764;9.172;2023-02-16T17:53:23;12.70;80.70
758;DHT22;363;48.764;9.172;2023-02-16T17:55:51;12.90;81.20
758;DHT22;363;48.764;9.172;2023-02-16T17:58:18;13.00;81.60
758;DHT22;363;48.764;9.172;2023-02-16T18:00:45;12.80;82.00
758;DHT22;363;48.764;9.172;2023-02-16T18:03:11;13.00;83.00
758;DHT22;363;48.764;9.172;2023-02-16T18:05:37;12.90;82.60
758;DHT22;363;48.764;9.172;2023-02-16T18:08:04;12.80;83.10
758;DHT22;363;48.764;9.172;2023-02-16T18:10:45;12.70;83.60
758;DHT22;363;48.764;9.172;2023-02-16T18:13:12;12.60;82.70
758;DHT22;363;48.764;9.172;2023-02-16T18:15:40;12.60;82.90
758;DHT22;363;48.764;9.172;2023-02-16T18:18:06;12.70;83.70
758;DHT22;363;48.764;9.172;2023-02-16T18:20:31;12.40;83.60
758;DHT22;363;48.764;9.172;2023-02-16T18:22:57;12.70;83.70
758;DHT22;363;48.764;9.172;2023-02-16T18:25:23;12.50;84.10
758;DHT22;363;48.764;9.172;2023-02-16T18:27:48;12.50;84.90
758;DHT22;363;48.764;9.172;2023-02-16T18:30:15;12.30;85.60
758;DHT22;363;48.764;9.172;2023-02-16T18:32:41;12.80;86.20
758;DHT22;363;48.764;9.172;2023-02-16T18:35:08;12.60;86.00
758;DHT22;363;48.764;9.172;2023-02-16T18:37:34;12.40;86.00
758;DHT22;363;48.764;9.172;2023-02-16T18:40:00;12.20;86.30
758;DHT22;363;48.764;9.172;2023-02-16T18:42:25;12.20;87.00
758;DHT22;363;48.764;9.172;2023-02-16T18:44:51;12.20;87.50
758;DHT22;363;48.764;9.172;2023-02-16T18:47:16;12.30;88.40
758;DHT22;363;48.764;9.172;2023-02-16T18:49:42;12.20;88.90
758;DHT22;363;48.764;9.172;2023-02-16T18:52:08;12.20;90.00
758;DHT22;363;48.764;9.172;2023-02-16T18:54:34;12.20;90.30
758;DHT22;363;48.764;9.172;2023-02-16T18:57:00;12.20;90.50
758;DHT22;363;48.764;9.172;2023-02-16T18:59:25;12.00;90.50
758;DHT22;363;48.764;9.172;2023-02-16T19:01:56;11.80;90.40
758;DHT22;363;48.764;9.172;2023-02-16T19:04:22;11.90;90.50
758;DHT22;363;48.764;9.172;2023-02-16T19:06:48;12.00;90.60
758;DHT22;363;48.764;9.172;2023-02-16T19:09:14;12.00;90.90
758;DHT22;363;48.764;9.172;2023-02-16T19:11:39;12.00;90.90
758;DHT22;363;48.764;9.172;2023-02-16T19:14:05;12.10;91.10
758;DHT22;363;48.764;9.172;2023-02-16T19:16:30;11.60;91.70
758;DHT22;363;48.764;9.172;2023-02-16T19:18:56;11.70;92.40
758;DHT22;363;48.764;9.172;2023-02-16T19:21:22;11.60;93.70
758;DHT22;363;48.764;9.172;2023-02-16T19:23:47;11.70;93.60
758;DHT22;363;48.764;9.172;2023-02-16T19:26:15;11.80;93.30
758;DHT22;363;48.764;9.172;2023-02-16T19:28:41;11.60;93.20
758;DHT22;363;48.764;9.172;2023-02-16T19:31:15;11.60;93.50
758;DHT22;363;48.764;9.172;2023-02-16T19:33:41;11.50;94.50
758;DHT22;363;48.764;9.172;2023-02-16T19:36:09;11.50;95.00
758;DHT22;363;48.764;9.172;2023-02-16T19:38:36;11.50;94.80
758;DHT22;363;48.764;9.172;2023-02-16T19:41:11;11.50;94.60
758;DHT22;363;48.764;9.172;2023-02-16T19:43:37;11.80;95.60
758;DHT22;363;48.764;9.172;2023-02-16T19:46:03;11.50;95.00
758;DHT22;363;48.764;9.172;2023-02-16T19:48:29;11.40;95.10
758;DHT22;363;48.764;9.172;2023-02-16T19:50:56;11.50;95.40
758;DHT22;363;48.764;9.172;2023-02-16T19:53:22;11.40;95.00
758;DHT22;363;48.764;9.172;2023-02-16T19:55:47;11.40;95.10